sensor_id;sensor_type;location;lat;lon;timestamp;temperature;humidity
21770;DHT22;11046;49.558;8.674;2022-07-10T00:00:14;16.10;78.40
21770;DHT22;11046;49.558;8.674;2022-07-10T00:03:15;16.00;78.70
21770;DHT22;11046;49.558;8.674;2022-07-10T00:06:16;15.90;78.80
21770;DHT22;11046;49.558;8.674;2022-07-10T00:09:17;15.90;79.00
21770;DHT22;11046;49.558;8.674;2022-07-10T00:12:17;15.90;79.10
21770;DHT22;11046;49.558;8.674;2022-07-10T00:15:19;15.80;79.50
21770;DHT22;11046;49.558;8.674;2022-07-10T00:18:19;15.80;79.60
21770;DHT22;11046;49.558;8.674;2022-07-10T00:21:20;15.80;79.70
21770;DHT22;11046;49.558;8.674;2022-07-10T00:24:21;15.80;79.80
21770;DHT22;11046;49.558;8.674;2022-07-10T00:27:21;15.70;79.80
21770;DHT22;11046;49.558;8.674;2022-07-10T00:30:22;15.70;79.90
21770;DHT22;11046;49.558;8.674;2022-07-10T05:11:17;13.40;86.50
21770;DHT22;11046;49.558;8.674;2022-07-10T05:14:18;13.70;86.50
21770;DHT22;11046;49.558;8.674;2022-07-10T05:17:19;14.10;85.70
21770;DHT22;11046;49.558;8.674;2022-07-10T05:20:19;14.50;84.60
21770;DHT22;11046;49.558;8.674;2022-07-10T05:23:20;14.90;83.50
21770;DHT22;11046;49.558;8.674;2022-07-10T05:26:21;15.10;82.30
21770;DHT22;11046;49.558;8.674;2022-07-10T05:29:22;15.20;81.50
21770;DHT22;11046;49.558;8.674;2022-07-10T05:32:23;15.30;80.70
21770;DHT22;11046;49.558;8.674;2022-07-10T05:35:26;15.40;80.30
21770;DHT22;11046;49.558;8.674;2022-07-10T05:38:26;15.50;79.70
21770;DHT22;11046;49.558;8.674;2022-07-10T05:41:27;15.50;79.50
21770;DHT22;11046;49.558;8.674;2022-07-10T05:44:28;15.60;79.10
21770;DHT22;11046;49.558;8.674;2022-07-10T05:47:29;15.60;78.50
21770;DHT22;11046;49.558;8.674;2022-07-10T05:50:29;15.70;78.40
21770;DHT22;11046;49.558;8.674;2022-07-10T05:53:30;15.70;78.10
21770;DHT22;11046;49.558;8.674;2022-07-10T05:56:31;15.80;77.60
21770;DHT22;11046;49.558;8.674;2022-07-10T05:59:35;15.80;76.90
21770;DHT22;11046;49.558;8.674;2022-07-10T06:02:36;15.90;76.50
21770;DHT22;11046;49.558;8.674;2022-07-10T06:05:36;15.90;76.10
21770;DHT22;11046;49.558;8.674;2022-07-10T06:08:37;15.90;75.80
21770;DHT22;11046;49.558;8.674;2022-07-10T06:11:38;16.00;75.70
21770;DHT22;11046;49.558;8.674;2022-07-10T06:14:41;16.20;75.20
21770;DHT22;11046;49.558;8.674;2022-07-10T06:17:42;16.30;74.70
21770;DHT22;11046;49.558;8.674;2022-07-10T06:20:43;16.50;73.90
21770;DHT22;11046;49.558;8.674;2022-07-10T06:23:43;16.40;73.10
21770;DHT22;11046;49.558;8.674;2022-07-10T06:26:44;16.40;72.90
21770;DHT22;11046;49.558;8.674;2022-07-10T06:29:45;16.60;72.70
21770;DHT22;11046;49.558;8.674;2022-07-10T06:32:45;16.80;72.00
21770;DHT22;11046;49.558;8.674;2022-07-10T06:35:46;16.90;71.20
21770;DHT22;11046;49.558;8.674;2022-07-10T06:38:47;17.00;71.20
21770;DHT22;11046;49.558;8.674;2022-07-10T06:41:48;17.30;71.00
21770;DHT22;11046;49.558;8.674;2022-07-10T06:44:49;17.70;69.90
21770;DHT22;11046;49.558;8.674;2022-07-10T06:47:50;18.20;68.70
21770;DHT22;11046;49.558;8.674;2022-07-10T06:50:56;18.50;67.30
21770;DHT22;11046;49.558;8.674;2022-07-10T06:53:57;18.80;66.00
21770;DHT22;11046;49.558;8.674;2022-07-10T06:56:58;19.00;64.80
21770;DHT22;11046;49.558;8.674;2022-07-10T06:59:59;19.30;63.40
21770;DHT22;11046;49.558;8.674;2022-07-10T07:03:00;19.50;62.10
21770;DHT22;11046;49.558;8.674;2022-07-10T07:06:00;19.60;61.00
21770;DHT22;11046;49.558;8.674;2022-07-10T07:09:01;19.80;60.20
21770;DHT22;11046;49.558;8.674;2022-07-10T07:12:02;20.10;58.90
21770;DHT22;11046;49.558;8.674;2022-07-10T07:15:04;19.90;57.80
21770;DHT22;11046;49.558;8.674;2022-07-10T07:18:06;19.60;57.30
21770;DHT22;11046;49.558;8.674;2022-07-10T07:21:12;19.50;58.00
21770;DHT22;11046;49.558;8.674;2022-07-10T07:24:31;19.80;57.40
21770;DHT22;11046;49.558;8.674;2022-07-10T07:27:36;20.10;56.20
21770;DHT22;11046;49.558;8.674;2022-07-10T07:30:37;19.80;55.20
21770;DHT22;11046;49.558;8.674;2022-07-10T07:33:38;19.80;55.30
21770;DHT22;11046;49.558;8.674;2022-07-10T07:36:39;20.10;54.80
21770;DHT22;11046;49.558;8.674;2022-07-10T07:39:39;20.60;54.10
21770;DHT22;11046;49.558;8.674;2022-07-10T07:42:41;20.90;53.20
21770;DHT22;11046;49.558;8.674;2022-07-10T07:45:42;21.20;52.10
21770;DHT22;11046;49.558;8.674;2022-07-10T07:48:43;21.70;51.30
21770;DHT22;11046;49.558;8.674;2022-07-10T07:51:43;22.10;50.60
21770;DHT22;11046;49.558;8.674;2022-07-10T07:54:44;22.30;49.50
21770;DHT22;11046;49.558;8.674;2022-07-10T07:57:46;22.40;48.60
21770;DHT22;11046;49.558;8.674;2022-07-10T08:00:47;22.00;47.80
21770;DHT22;11046;49.558;8.674;2022-07-10T08:03:47;21.60;48.00
21770;DHT22;11046;49.558;8.674;2022-07-10T08:06:48;21.30;48.40
21770;DHT22;11046;49.558;8.674;2022-07-10T08:09:52;21.10;48.90
21770;DHT22;11046;49.558;8.674;2022-07-10T08:12:53;21.00;49.00
21770;DHT22;11046;49.558;8.674;2022-07-10T08:15:54;20.80;48.60
21770;DHT22;11046;49.558;8.674;2022-07-10T08:18:55;20.40;48.80
21770;DHT22;11046;49.558;8.674;2022-07-10T08:21:55;20.20;49.10
21770;DHT22;11046;49.558;8.674;2022-07-10T08:24:56;20.10;49.40
21770;DHT22;11046;49.558;8.674;2022-07-10T08:28:04;20.00;49.40
21770;DHT22;11046;49.558;8.674;2022-07-10T08:31:06;19.80;49.20
21770;DHT22;11046;49.558;8.674;2022-07-10T08:34:06;19.90;49.60
21770;DHT22;11046;49.558;8.674;2022-07-10T08:37:07;20.20;49.30
21770;DHT22;11046;49.558;8.674;2022-07-10T08:40:15;20.40;48.90
21770;DHT22;11046;49.558;8.674;2022-07-10T08:43:16;20.60;48.10
21770;DHT22;11046;49.558;8.674;2022-07-10T08:46:17;20.40;48.30
21770;DHT22;11046;49.558;8.674;2022-07-10T08:49:20;20.80;48.80
21770;DHT22;11046;49.558;8.674;2022-07-10T08:52:26;21.00;48.10
21770;DHT22;11046;49.558;8.674;2022-07-10T08:55:27;20.70;48.20
21770;DHT22;11046;49.558;8.674;2022-07-10T08:58:29;20.40;48.50
21770;DHT22;11046;49.558;8.674;2022-07-10T09:01:32;20.30;48.50
21770;DHT22;11046;49.558;8.674;2022-07-10T09:04:33;20.80;48.60
21770;DHT22;11046;49.558;8.674;2022-07-10T09:07:37;21.80;47.50
21770;DHT22;11046;49.558;8.674;2022-07-10T09:10:38;22.30;45.60
21770;DHT22;11046;49.558;8.674;2022-07-10T09:14:15;22.10;44.90
21770;DHT22;11046;49.558;8.674;2022-07-10T09:17:19;22.10;44.90
21770;DHT22;11046;49.558;8.674;2022-07-10T09:20:27;22.40;45.00
21770;DHT22;11046;49.558;8.674;2022-07-10T09:23:29;22.40;44.40
21770;DHT22;11046;49.558;8.674;2022-07-10T09:26:30;22.40;44.40
21770;DHT22;11046;49.558;8.674;2022-07-10T09:29:34;22.70;44.30
21770;DHT22;11046;49.558;8.674;2022-07-10T09:32:44;23.20;44.10
21770;DHT22;11046;49.558;8.674;2022-07-10T09:36:07;23.40;43.00
21770;DHT22;11046;49.558;8.674;2022-07-10T09:39:09;23.10;42.70
21770;DHT22;11046;49.558;8.674;2022-07-10T09:42:27;22.80;43.20
21770;DHT22;11046;49.558;8.674;2022-07-10T09:45:28;22.50;42.60
21770;DHT22;11046;49.558;8.674;2022-07-10T09:48:29;22.30;43.50
21770;DHT22;11046;49.558;8.674;2022-07-10T09:51:41;22.60;43.70
21770;DHT22;11046;49.558;8.674;2022-07-10T09:54:42;22.60;43.20
21770;DHT22;11046;49.558;8.674;2022-07-10T09:57:43;22.30;42.90
21770;DHT22;11046;49.558;8.674;2022-07-10T10:00:46;22.00;42.90
21770;DHT22;11046;49.558;8.674;2022-07-10T10:03:48;21.70;43.10
21770;DHT22;11046;49.558;8.674;2022-07-10T10:06:54;21.40;43.30
21770;DHT22;11046;49.558;8.674;2022-07-10T10:09:58;21.40;43.90
21770;DHT22;11046;49.558;8.674;2022-07-10T10:13:03;21.50;43.90
21770;DHT22;11046;49.558;8.674;2022-07-10T10:16:06;22.00;43.90
21770;DHT22;11046;49.558;8.674;2022-07-10T10:19:08;22.70;43.30
21770;DHT22;11046;49.558;8.674;2022-07-10T10:22:29;23.50;42.70
21770;DHT22;11046;49.558;8.674;2022-07-10T10:25:33;24.20;41.70
21770;DHT22;11046;49.558;8.674;2022-07-10T10:28:34;24.10;40.80
21770;DHT22;11046;49.558;8.674;2022-07-10T10:31:35;23.50;40.60
21770;DHT22;11046;49.558;8.674;2022-07-10T10:34:47;23.10;41.20
21770;DHT22;11046;49.558;8.674;2022-07-10T10:37:57;23.20;41.00
21770;DHT22;11046;49.558;8.674;2022-07-10T10:41:25;23.20;40.90
21770;DHT22;11046;49.558;8.674;2022-07-10T10:44:27;23.00;40.70
21770;DHT22;11046;49.558;8.674;2022-07-10T10:51:01;22.80;41.00
21770;DHT22;11046;49.558;8.674;2022-07-10T10:54:04;23.10;41.40
21770;DHT22;11046;49.558;8.674;2022-07-10T10:57:16;23.20;40.80
21770;DHT22;11046;49.558;8.674;2022-07-10T11:00:44;23.00;40.60
21770;DHT22;11046;49.558;8.674;2022-07-10T11:07:06;23.40;40.40
21770;DHT22;11046;49.558;8.674;2022-07-10T11:13:33;24.00;40.10
21770;DHT22;11046;49.558;8.674;2022-07-10T11:16:33;24.40;40.00
21770;DHT22;11046;49.558;8.674;2022-07-10T11:19:34;24.70;39.40
21770;DHT22;11046;49.558;8.674;2022-07-10T11:23:38;24.50;38.80
21770;DHT22;11046;49.558;8.674;2022-07-10T11:26:37;24.40;38.90
21770;DHT22;11046;49.558;8.674;2022-07-10T11:29:41;24.70;39.00
21770;DHT22;11046;49.558;8.674;2022-07-10T11:32:41;24.90;38.60
21770;DHT22;11046;49.558;8.674;2022-07-10T11:35:51;24.70;38.60
21770;DHT22;11046;49.558;8.674;2022-07-10T11:38:59;25.00;38.10
21770;DHT22;11046;49.558;8.674;2022-07-10T11:42:00;25.30;37.60
21770;DHT22;11046;49.558;8.674;2022-07-10T11:45:30;25.50;37.20
21770;DHT22;11046;49.558;8.674;2022-07-10T11:48:38;25.90;36.20
21770;DHT22;11046;49.558;8.674;2022-07-10T11:51:40;25.80;36.10
21770;DHT22;11046;49.558;8.674;2022-07-10T11:54:41;25.50;36.50
21770;DHT22;11046;49.558;8.674;2022-07-10T11:57:43;25.00;36.70
21770;DHT22;11046;49.558;8.674;2022-07-10T12:01:03;24.60;37.50
21770;DHT22;11046;49.558;8.674;2022-07-10T12:04:08;24.40;37.50
21770;DHT22;11046;49.558;8.674;2022-07-10T12:07:09;24.00;38.30
21770;DHT22;11046;49.558;8.674;2022-07-10T12:10:09;24.10;38.80
21770;DHT22;11046;49.558;8.674;2022-07-10T12:13:12;24.40;38.30
21770;DHT22;11046;49.558;8.674;2022-07-10T12:16:14;24.70;38.00
21770;DHT22;11046;49.558;8.674;2022-07-10T12:19:16;24.70;37.70
21770;DHT22;11046;49.558;8.674;2022-07-10T12:22:17;24.40;37.70
21770;DHT22;11046;49.558;8.674;2022-07-10T12:25:18;24.20;39.30
21770;DHT22;11046;49.558;8.674;2022-07-10T12:28:19;24.30;38.50
21770;DHT22;11046;49.558;8.674;2022-07-10T12:31:25;24.10;38.30
21770;DHT22;11046;49.558;8.674;2022-07-10T12:37:35;24.60;37.90
21770;DHT22;11046;49.558;8.674;2022-07-10T12:40:35;24.90;38.30
21770;DHT22;11046;49.558;8.674;2022-07-10T12:43:38;24.90;37.70
21770;DHT22;11046;49.558;8.674;2022-07-10T12:46:39;25.10;37.90
21770;DHT22;11046;49.558;8.674;2022-07-10T12:50:03;25.20;37.60
21770;DHT22;11046;49.558;8.674;2022-07-10T12:53:11;25.20;37.50
21770;DHT22;11046;49.558;8.674;2022-07-10T12:56:30;25.40;37.80
21770;DHT22;11046;49.558;8.674;2022-07-10T12:59:34;25.30;37.10
21770;DHT22;11046;49.558;8.674;2022-07-10T13:02:35;25.20;37.40
21770;DHT22;11046;49.558;8.674;2022-07-10T13:05:40;25.20;37.60
21770;DHT22;11046;49.558;8.674;2022-07-10T13:08:45;25.20;37.50
21770;DHT22;11046;49.558;8.674;2022-07-10T13:11:47;25.20;37.40
21770;DHT22;11046;49.558;8.674;2022-07-10T13:14:47;25.00;37.40
21770;DHT22;11046;49.558;8.674;2022-07-10T13:17:48;25.00;38.30
21770;DHT22;11046;49.558;8.674;2022-07-10T13:20:51;25.50;38.40
21770;DHT22;11046;49.558;8.674;2022-07-10T13:23:53;25.80;37.80
21770;DHT22;11046;49.558;8.674;2022-07-10T13:26:54;25.70;37.30
21770;DHT22;11046;49.558;8.674;2022-07-10T13:29:57;25.30;37.40
21770;DHT22;11046;49.558;8.674;2022-07-10T13:32:58;25.00;37.80
21770;DHT22;11046;49.558;8.674;2022-07-10T13:36:00;24.90;37.60
21770;DHT22;11046;49.558;8.674;2022-07-10T13:39:01;24.90;38.40
21770;DHT22;11046;49.558;8.674;2022-07-10T13:42:02;25.30;38.40
21770;DHT22;11046;49.558;8.674;2022-07-10T13:45:03;25.40;37.90
21770;DHT22;11046;49.558;8.674;2022-07-10T13:48:04;25.50;37.70
21770;DHT22;11046;49.558;8.674;2022-07-10T13:51:05;25.50;37.90
21770;DHT22;11046;49.558;8.674;2022-07-10T13:54:06;25.50;37.40
21770;DHT22;11046;49.558;8.674;2022-07-10T13:57:06;25.50;37.70
21770;DHT22;11046;49.558;8.674;2022-07-10T14:00:08;25.50;37.60
21770;DHT22;11046;49.558;8.674;2022-07-10T14:03:14;25.20;37.60
21770;DHT22;11046;49.558;8.674;2022-07-10T14:06:15;25.00;37.70
21770;DHT22;11046;49.558;8.674;2022-07-10T14:09:16;24.90;37.70
21770;DHT22;11046;49.558;8.674;2022-07-10T14:12:17;25.00;38.30
21770;DHT22;11046;49.558;8.674;2022-07-10T14:15:17;25.10;38.30
21770;DHT22;11046;49.558;8.674;2022-07-10T14:18:18;25.30;38.00
21770;DHT22;11046;49.558;8.674;2022-07-10T14:21:35;25.10;37.70
21770;DHT22;11046;49.558;8.674;2022-07-10T14:24:36;24.90;37.70
21770;DHT22;11046;49.558;8.674;2022-07-10T14:27:36;24.80;38.00
21770;DHT22;11046;49.558;8.674;2022-07-10T14:30:37;24.70;37.80
21770;DHT22;11046;49.558;8.674;2022-07-10T14:33:38;24.50;38.40
21770;DHT22;11046;49.558;8.674;2022-07-10T14:36:38;24.40;38.40
21770;DHT22;11046;49.558;8.674;2022-07-10T14:39:39;24.20;38.50
21770;DHT22;11046;49.558;8.674;2022-07-10T14:42:40;24.10;38.90
21770;DHT22;11046;49.558;8.674;2022-07-10T14:45:40;24.00;39.00
21770;DHT22;11046;49.558;8.674;2022-07-10T14:48:41;24.00;39.00
21770;DHT22;11046;49.558;8.674;2022-07-10T14:51:42;23.90;39.10
21770;DHT22;11046;49.558;8.674;2022-07-10T14:54:43;23.70;39.20
21770;DHT22;11046;49.558;8.674;2022-07-10T14:57:43;23.60;39.50
21770;DHT22;11046;49.558;8.674;2022-07-10T15:00:44;23.40;39.60
21770;DHT22;11046;49.558;8.674;2022-07-10T15:03:44;23.40;39.70
21770;DHT22;11046;49.558;8.674;2022-07-10T15:06:45;23.60;39.90
21770;DHT22;11046;49.558;8.674;2022-07-10T15:09:47;23.50;39.80
21770;DHT22;11046;49.558;8.674;2022-07-10T15:12:48;23.30;40.10
21770;DHT22;11046;49.558;8.674;2022-07-10T15:15:49;23.20;40.40
21770;DHT22;11046;49.558;8.674;2022-07-10T15:18:51;23.10;40.40
21770;DHT22;11046;49.558;8.674;2022-07-10T15:21:52;23.10;40.80
21770;DHT22;11046;49.558;8.674;2022-07-10T15:24:53;23.10;41.20
21770;DHT22;11046;49.558;8.674;2022-07-10T15:27:53;23.00;40.90
21770;DHT22;11046;49.558;8.674;2022-07-10T15:30:54;23.00;41.30
21770;DHT22;11046;49.558;8.674;2022-07-10T15:33:55;23.20;41.30
21770;DHT22;11046;49.558;8.674;2022-07-10T15:36:56;23.40;41.00
21770;DHT22;11046;49.558;8.674;2022-07-10T15:39:56;23.70;40.90
21770;DHT22;11046;49.558;8.674;2022-07-10T15:42:58;23.70;40.80
21770;DHT22;11046;49.558;8.674;2022-07-10T15:45:58;23.80;40.40
21770;DHT22;11046;49.558;8.674;2022-07-10T15:48:59;23.70;40.40
21770;DHT22;11046;49.558;8.674;2022-07-10T15:52:00;23.70;40.80
21770;DHT22;11046;49.558;8.674;2022-07-10T15:55:01;23.70;40.60
21770;DHT22;11046;49.558;8.674;2022-07-10T15:58:01;23.50;40.70
21770;DHT22;11046;49.558;8.674;2022-07-10T16:01:02;23.20;40.90
21770;DHT22;11046;49.558;8.674;2022-07-10T16:04:03;23.20;41.30
21770;DHT22;11046;49.558;8.674;2022-07-10T16:07:04;23.20;41.30
21770;DHT22;11046;49.558;8.674;2022-07-10T16:10:05;23.10;41.20
21770;DHT22;11046;49.558;8.674;2022-07-10T16:13:06;23.10;41.40
21770;DHT22;11046;49.558;8.674;2022-07-10T16:16:07;23.00;42.20
21770;DHT22;11046;49.558;8.674;2022-07-10T16:19:07;23.00;41.60
21770;DHT22;11046;49.558;8.674;2022-07-10T16:22:08;22.90;41.70
21770;DHT22;11046;49.558;8.674;2022-07-10T16:25:09;22.80;41.90
21770;DHT22;11046;49.558;8.674;2022-07-10T16:28:29;22.70;42.10
21770;DHT22;11046;49.558;8.674;2022-07-10T16:31:30;22.60;42.40
21770;DHT22;11046;49.558;8.674;2022-07-10T16:34:33;22.50;42.70
21770;DHT22;11046;49.558;8.674;2022-07-10T16:37:34;22.50;43.10
21770;DHT22;11046;49.558;8.674;2022-07-10T16:40:35;22.40;43.10
21770;DHT22;11046;49.558;8.674;2022-07-10T16:43:35;22.50;43.20
21770;DHT22;11046;49.558;8.674;2022-07-10T16:46:36;22.60;43.30
21770;DHT22;11046;49.558;8.674;2022-07-10T16:49:37;22.60;43.30
21770;DHT22;11046;49.558;8.674;2022-07-10T16:52:37;22.60;43.40
21770;DHT22;11046;49.558;8.674;2022-07-10T16:55:41;22.70;43.40
21770;DHT22;11046;49.558;8.674;2022-07-10T16:58:41;22.70;43.60
21770;DHT22;11046;49.558;8.674;2022-07-10T17:01:42;22.70;43.70
21770;DHT22;11046;49.558;8.674;2022-07-10T17:04:43;22.60;43.70
21770;DHT22;11046;49.558;8.674;2022-07-10T17:07:44;22.40;44.00
21770;DHT22;11046;49.558;8.674;2022-07-10T17:10:44;22.20;44.10
21770;DHT22;11046;49.558;8.674;2022-07-10T17:13:45;22.10;44.40
21770;DHT22;11046;49.558;8.674;2022-07-10T17:16:46;22.00;44.70
21770;DHT22;11046;49.558;8.674;2022-07-10T17:19:47;21.90;44.90
21770;DHT22;11046;49.558;8.674;2022-07-10T17:22:47;21.80;45.10
21770;DHT22;11046;49.558;8.674;2022-07-10T17:25:48;21.70;45.90
21770;DHT22;11046;49.558;8.674;2022-07-10T17:28:49;21.60;45.40
21770;DHT22;11046;49.558;8.674;2022-07-10T17:31:49;21.60;45.70
21770;DHT22;11046;49.558;8.674;2022-07-10T17:34:50;21.60;45.90
21770;DHT22;11046;49.558;8.674;2022-07-10T17:37:51;21.50;46.10
21770;DHT22;11046;49.558;8.674;2022-07-10T17:40:52;21.40;46.20
21770;DHT22;11046;49.558;8.674;2022-07-10T17:43:52;21.40;46.30
21770;DHT22;11046;49.558;8.674;2022-07-10T17:46:54;21.40;46.50
21770;DHT22;11046;49.558;8.674;2022-07-10T17:49:55;21.40;46.40
21770;DHT22;11046;49.558;8.674;2022-07-10T17:52:55;21.30;46.70
21770;DHT22;11046;49.558;8.674;2022-07-10T17:55:57;21.40;46.80
21770;DHT22;11046;49.558;8.674;2022-07-10T17:58:58;21.50;46.80
21770;DHT22;11046;49.558;8.674;2022-07-10T18:01:59;21.50;46.70
21770;DHT22;11046;49.558;8.674;2022-07-10T18:04:59;21.40;47.60
21770;DHT22;11046;49.558;8.674;2022-07-10T18:08:00;21.40;47.20
21770;DHT22;11046;49.558;8.674;2022-07-10T18:11:01;21.30;47.30
21770;DHT22;11046;49.558;8.674;2022-07-10T18:14:04;21.40;47.60
21770;DHT22;11046;49.558;8.674;2022-07-10T18:17:04;21.30;47.60
21770;DHT22;11046;49.558;8.674;2022-07-10T18:20:05;21.20;47.70
21770;DHT22;11046;49.558;8.674;2022-07-10T18:23:07;21.20;47.90
21770;DHT22;11046;49.558;8.674;2022-07-10T18:26:08;21.20;47.90
21770;DHT22;11046;49.558;8.674;2022-07-10T18:29:09;21.10;48.20
21770;DHT22;11046;49.558;8.674;2022-07-10T18:32:10;21.00;48.30
21770;DHT22;11046;49.558;8.674;2022-07-10T18:35:11;21.00;48.30
21770;DHT22;11046;49.558;8.674;2022-07-10T18:38:11;21.00;48.50
21770;DHT22;11046;49.558;8.674;2022-07-10T18:41:13;21.00;48.70
21770;DHT22;11046;49.558;8.674;2022-07-10T18:44:13;21.00;48.80
21770;DHT22;11046;49.558;8.674;2022-07-10T18:47:14;20.80;48.90
21770;DHT22;11046;49.558;8.674;2022-07-10T18:50:15;20.80;49.30
21770;DHT22;11046;49.558;8.674;2022-07-10T18:53:16;20.60;49.40
21770;DHT22;11046;49.558;8.674;2022-07-10T18:56:17;20.60;49.70
21770;DHT22;11046;49.558;8.674;2022-07-10T18:59:18;20.50;49.90
21770;DHT22;11046;49.558;8.674;2022-07-10T19:02:18;20.50;50.10
21770;DHT22;11046;49.558;8.674;2022-07-10T19:05:19;20.40;50.30
21770;DHT22;11046;49.558;8.674;2022-07-10T19:08:20;20.40;50.40
21770;DHT22;11046;49.558;8.674;2022-07-10T19:11:20;20.40;50.40
21770;DHT22;11046;49.558;8.674;2022-07-10T19:14:21;20.30;50.70
21770;DHT22;11046;49.558;8.674;2022-07-10T19:17:22;20.20;50.90
21770;DHT22;11046;49.558;8.674;2022-07-10T19:20:23;20.10;51.10
21770;DHT22;11046;49.558;8.674;2022-07-10T19:23:23;20.10;51.40
21770;DHT22;11046;49.558;8.674;2022-07-10T19:26:25;20.00;51.60
21770;DHT22;11046;49.558;8.674;2022-07-10T19:29:26;20.00;51.80
21770;DHT22;11046;49.558;8.674;2022-07-10T19:32:27;19.90;51.90
21770;DHT22;11046;49.558;8.674;2022-07-10T19:35:28;19.90;52.10
21770;DHT22;11046;49.558;8.674;2022-07-10T19:38:29;19.80;52.10
21770;DHT22;11046;49.558;8.674;2022-07-10T19:41:30;19.80;52.40
21770;DHT22;11046;49.558;8.674;2022-07-10T19:44:31;19.80;52.50
21770;DHT22;11046;49.558;8.674;2022-07-10T19:47:32;19.80;53.20
21770;DHT22;11046;49.558;8.674;2022-07-10T19:50:32;19.80;52.80
21770;DHT22;11046;49.558;8.674;2022-07-10T19:53:34;19.70;52.90
21770;DHT22;11046;49.558;8.674;2022-07-10T19:56:35;19.70;53.00
21770;DHT22;11046;49.558;8.674;2022-07-10T19:59:35;19.60;53.10
21770;DHT22;11046;49.558;8.674;2022-07-10T20:02:36;19.60;53.90
21770;DHT22;11046;49.558;8.674;2022-07-10T20:05:37;19.40;53.40
21770;DHT22;11046;49.558;8.674;2022-07-10T20:08:37;19.40;53.70
21770;DHT22;11046;49.558;8.674;2022-07-10T20:11:38;19.30;53.80
21770;DHT22;11046;49.558;8.674;2022-07-10T20:14:39;19.30;54.10
21770;DHT22;11046;49.558;8.674;2022-07-10T20:17:39;19.30;54.00
21770;DHT22;11046;49.558;8.674;2022-07-10T20:20:40;19.30;54.20
21770;DHT22;11046;49.558;8.674;2022-07-10T20:23:41;19.20;54.40
21770;DHT22;11046;49.558;8.674;2022-07-10T20:26:41;19.20;54.60
21770;DHT22;11046;49.558;8.674;2022-07-10T20:29:42;19.20;54.60
21770;DHT22;11046;49.558;8.674;2022-07-10T20:32:43;19.20;54.80
21770;DHT22;11046;49.558;8.674;2022-07-10T20:35:44;19.10;54.90
21770;DHT22;11046;49.558;8.674;2022-07-10T20:38:44;19.10;55.00
21770;DHT22;11046;49.558;8.674;2022-07-10T20:41:45;19.10;55.00
21770;DHT22;11046;49.558;8.674;2022-07-10T20:44:46;19.10;55.20
21770;DHT22;11046;49.558;8.674;2022-07-10T20:47:46;19.00;55.40
21770;DHT22;11046;49.558;8.674;2022-07-10T20:50:47;19.00;55.60
21770;DHT22;11046;49.558;8.674;2022-07-10T20:53:48;18.90;55.90
21770;DHT22;11046;49.558;8.674;2022-07-10T20:56:48;18.90;56.10
21770;DHT22;11046;49.558;8.674;2022-07-10T20:59:49;18.90;56.20
21770;DHT22;11046;49.558;8.674;2022-07-10T21:02:50;18.90;56.30
21770;DHT22;11046;49.558;8.674;2022-07-10T21:05:51;18.80;56.40
21770;DHT22;11046;49.558;8.674;2022-07-10T21:08:52;18.80;56.60
21770;DHT22;11046;49.558;8.674;2022-07-10T21:11:52;18.70;56.70
21770;DHT22;11046;49.558;8.674;2022-07-10T21:14:53;18.70;57.00
21770;DHT22;11046;49.558;8.674;2022-07-10T21:17:54;18.70;57.20
21770;DHT22;11046;49.558;8.674;2022-07-10T21:20:54;18.70;57.20
21770;DHT22;11046;49.558;8.674;2022-07-10T21:23:55;18.60;57.50
21770;DHT22;11046;49.558;8.674;2022-07-10T21:26:56;18.60;57.60
21770;DHT22;11046;49.558;8.674;2022-07-10T21:29:56;18.60;57.70
21770;DHT22;11046;49.558;8.674;2022-07-10T21:32:57;18.60;57.70
21770;DHT22;11046;49.558;8.674;2022-07-10T21:35:58;18.60;57.90
21770;DHT22;11046;49.558;8.674;2022-07-10T21:38:58;18.60;57.90
21770;DHT22;11046;49.558;8.674;2022-07-10T21:41:59;18.60;58.10
21770;DHT22;11046;49.558;8.674;2022-07-10T21:45:00;18.60;58.20
21770;DHT22;11046;49.558;8.674;2022-07-10T21:48:01;18.60;58.30
21770;DHT22;11046;49.558;8.674;2022-07-10T21:51:01;18.60;58.30
21770;DHT22;11046;49.558;8.674;2022-07-10T21:54:02;18.60;58.50
21770;DHT22;11046;49.558;8.674;2022-07-10T21:57:03;18.50;58.60
21770;DHT22;11046;49.558;8.674;2022-07-10T22:00:08;18.50;58.80
21770;DHT22;11046;49.558;8.674;2022-07-10T22:03:15;18.50;59.20
21770;DHT22;11046;49.558;8.674;2022-07-10T22:06:16;18.40;59.30
21770;DHT22;11046;49.558;8.674;2022-07-10T22:09:17;18.30;59.30
21770;DHT22;11046;49.558;8.674;2022-07-10T22:12:17;18.30;59.60
21770;DHT22;11046;49.558;8.674;2022-07-10T22:15:18;18.30;59.60
21770;DHT22;11046;49.558;8.674;2022-07-10T22:18:19;18.30;59.70
21770;DHT22;11046;49.558;8.674;2022-07-10T22:21:19;18.10;59.80
21770;DHT22;11046;49.558;8.674;2022-07-10T22:24:20;18.10;60.20
21770;DHT22;11046;49.558;8.674;2022-07-10T22:27:21;18.10;60.40
21770;DHT22;11046;49.558;8.674;2022-07-10T22:30:21;18.10;60.50
21770;DHT22;11046;49.558;8.674;2022-07-10T22:33:41;18.00;60.80
21770;DHT22;11046;49.558;8.674;2022-07-10T22:36:41;18.00;61.00
21770;DHT22;11046;49.558;8.674;2022-07-10T22:39:43;18.00;61.10
21770;DHT22;11046;49.558;8.674;2022-07-10T22:42:43;18.00;61.30
21770;DHT22;11046;49.558;8.674;2022-07-10T22:45:44;17.90;61.50
21770;DHT22;11046;49.558;8.674;2022-07-10T22:48:44;17.90;61.80
21770;DHT22;11046;49.558;8.674;2022-07-10T22:51:45;17.90;61.80
21770;DHT22;11046;49.558;8.674;2022-07-10T22:54:46;18.00;61.90
21770;DHT22;11046;49.558;8.674;2022-07-10T22:57:46;18.00;62.10
21770;DHT22;11046;49.558;8.674;2022-07-10T23:00:48;18.00;62.10
21770;DHT22;11046;49.558;8.674;2022-07-10T23:03:49;17.90;62.40
21770;DHT22;11046;49.558;8.674;2022-07-10T23:06:50;17.90;62.70
21770;DHT22;11046;49.558;8.674;2022-07-10T23:09:50;17.90;62.90
21770;DHT22;11046;49.558;8.674;2022-07-10T23:12:51;17.80;63.10
21770;DHT22;11046;49.558;8.674;2022-07-10T23:15:52;17.80;63.20
21770;DHT22;11046;49.558;8.674;2022-07-10T23:18:53;17.80;63.50
21770;DHT22;11046;49.558;8.674;2022-07-10T23:21:55;17.80;63.50
21770;DHT22;11046;49.558;8.674;2022-07-10T23:24:56;17.70;63.70
21770;DHT22;11046;49.558;8.674;2022-07-10T23:27:58;17.70;64.00
21770;DHT22;11046;49.558;8.674;2022-07-10T23:30:58;17.60;64.20
21770;DHT22;11046;49.558;8.674;2022-07-10T23:33:59;17.60;64.40
21770;DHT22;11046;49.558;8.674;2022-07-10T23:37:00;17.60;64.60
21770;DHT22;11046;49.558;8.674;2022-07-10T23:40:00;17.60;64.80
21770;DHT22;11046;49.558;8.674;2022-07-10T23:43:01;17.60;64.60
21770;DHT22;11046;49.558;8.674;2022-07-10T23:46:03;17.60;64.60
21770;DHT22;11046;49.558;8.674;2022-07-10T23:49:04;17.60;65.10
21770;DHT22;11046;49.558;8.674;2022-07-10T23:52:23;17.50;66.20
21770;DHT22;11046;49.558;8.674;2022-07-10T23:55:24;17.50;65.40
21770;DHT22;11046;49.558;8.674;2022-07-10T23:58:24;17.50;65.70
